Time;durP1;ratioP1;P1;durP2;ratioP2;P2;SDS_P1;SDS_P2;PMS_P1;PMS_P2;Temp;Humidity;BMP_temperature;BMP_pressure;BME280_temperature;BME280_humidity;BME280_pressure;Samples;Min_cycle;Max_cycle;Signal;HPM_P1;HPM_P2
2023/12/22 00:00:18;;;;;;;16.75;2.58;;;;;;;-143.54;100.00;59916.91;5103764;28;20027;-80
2023/12/22 00:02:43;;;;;;;20.35;2.72;;;;;;;-143.54;100.00;59916.91;5092452;28;20024;-80
2023/12/22 00:05:08;;;;;;;13.73;2.63;;;;;;;-143.54;100.00;59916.91;5093980;28;20538;-80
2023/12/22 00:07:34;;;;;;;16.98;3.10;;;;;;;-143.54;100.00;59916.91;5096215;28;20123;-80
2023/12/22 00:09:59;;;;;;;16.73;2.50;;;;;;;-143.54;100.00;59916.91;5097688;28;20035;-80
2023/12/22 00:12:25;;;;;;;17.30;2.70;;;;;;;-143.54;100.00;59916.91;5102910;28;20421;-80
2023/12/22 00:14:50;;;;;;;27.08;3.30;;;;;;;-143.54;100.00;59916.91;5102854;28;20476;-80
2023/12/22 00:17:15;;;;;;;20.80;3.33;;;;;;;-143.54;100.00;59916.91;5096084;28;20043;-80
2023/12/22 00:19:40;;;;;;;21.35;3.40;;;;;;;-143.54;100.00;59916.91;5102064;28;20103;-80
2023/12/22 00:22:06;;;;;;;19.55;3.10;;;;;;;-143.54;100.00;59916.91;5092683;28;20088;-80
2023/12/22 00:24:31;;;;;;;18.90;3.08;;;;;;;-143.54;100.00;59916.91;5102973;28;20156;-80
2023/12/22 00:26:56;;;;;;;16.92;3.28;;;;;;;-143.54;100.00;59916.91;5095525;28;20050;-80
2023/12/22 00:29:22;;;;;;;18.17;3.85;;;;;;;-143.54;100.00;59916.91;5099239;28;20024;-80
2023/12/22 00:31:47;;;;;;;22.00;3.38;;;;;;;-143.54;100.00;59916.91;5104816;28;20028;-80
2023/12/22 00:34:12;;;;;;;22.55;2.65;;;;;;;-143.54;100.00;59916.91;5095283;28;20024;-80
2023/12/22 00:36:38;;;;;;;19.02;3.28;;;;;;;-143.54;100.00;59916.91;5096601;28;20032;-80
2023/12/22 00:39:04;;;;;;;15.88;2.63;;;;;;;-143.54;100.00;59916.91;5093984;28;20036;-80
2023/12/22 00:41:30;;;;;;;21.60;3.50;;;;;;;-143.54;100.00;59916.91;5093189;28;20054;-80
2023/12/22 00:43:55;;;;;;;17.50;3.75;;;;;;;-143.54;100.00;59916.91;5100118;28;20032;-80
2023/12/22 00:46:20;;;;;;;16.10;3.28;;;;;;;-143.54;100.00;59916.91;5099881;28;20032;-80
2023/12/22 00:48:46;;;;;;;22.50;3.17;;;;;;;-143.54;100.00;59916.91;5095578;28;20026;-80
2023/12/22 00:51:11;;;;;;;21.08;3.15;;;;;;;-143.54;100.00;59916.91;5088225;28;20056;-80
2023/12/22 00:53:36;;;;;;;12.68;2.97;;;;;;;-143.54;100.00;59916.91;5095928;28;20027;-80
2023/12/22 00:56:06;;;;;;;22.88;2.97;;;;;;;-143.54;100.00;59916.91;5099889;28;20418;-80
2023/12/22 00:58:31;;;;;;;23.63;3.28;;;;;;;-143.54;100.00;59916.91;5096000;28;20036;-80
2023/12/22 01:00:56;;;;;;;21.73;3.10;;;;;;;-143.54;100.00;59916.91;5098459;28;20031;-80
2023/12/22 01:03:22;;;;;;;16.95;3.03;;;;;;;-143.54;100.00;59916.91;5099482;28;20078;-80
2023/12/22 01:05:47;;;;;;;20.90;3.33;;;;;;;-143.54;100.00;59916.91;5101065;28;20020;-80
2023/12/22 01:08:13;;;;;;;20.85;3.05;;;;;;;-143.54;100.00;59916.91;5097743;28;20032;-80
2023/12/22 01:10:38;;;;;;;17.00;4.35;;;;;;;-143.54;100.00;59916.91;5089724;28;20063;-80
2023/12/22 01:13:03;;;;;;;19.88;3.25;;;;;;;-143.54;100.00;59916.91;5097955;28;20276;-80
2023/12/22 01:15:28;;;;;;;16.73;3.30;;;;;;;-143.54;100.00;59916.91;5102699;28;20105;-79
2023/12/22 01:17:55;;;;;;;19.33;3.30;;;;;;;-143.54;100.00;59916.91;5097162;28;20157;-79
2023/12/22 01:20:20;;;;;;;17.20;4.05;;;;;;;-143.54;100.00;59916.91;5092948;28;20027;-79
2023/12/22 01:22:46;;;;;;;16.25;3.08;;;;;;;-143.54;100.00;59916.91;5094562;28;20028;-79
2023/12/22 01:25:11;;;;;;;17.73;4.13;;;;;;;-143.54;100.00;59916.91;5090149;28;20379;-80
2023/12/22 01:27:36;;;;;;;21.20;3.15;;;;;;;-143.54;100.00;59916.91;5097550;28;20383;-80
2023/12/22 01:30:02;;;;;;;15.57;3.60;;;;;;;-143.54;100.00;59916.91;5092957;28;20039;-80
2023/12/22 01:32:34;;;;;;;17.92;3.22;;;;;;;-143.54;100.00;59916.91;5075953;28;20471;-80
2023/12/22 01:35:03;;;;;;;18.90;3.10;;;;;;;-143.54;100.00;59916.91;5093083;28;20023;-80
2023/12/22 01:37:28;;;;;;;17.85;3.17;;;;;;;-143.54;100.00;59916.91;5101739;28;20032;-80
2023/12/22 01:39:54;;;;;;;13.52;3.20;;;;;;;-143.54;100.00;59916.91;5088877;28;20035;-80
2023/12/22 01:42:19;;;;;;;12.00;3.05;;;;;;;-143.54;100.00;59916.91;5104127;28;20020;-80
2023/12/22 01:44:45;;;;;;;21.90;4.22;;;;;;;-143.54;100.00;59916.91;5106672;28;20027;-80
2023/12/22 01:47:10;;;;;;;16.60;2.83;;;;;;;-143.54;100.00;59916.91;5105813;28;20471;-80
2023/12/22 01:49:36;;;;;;;16.73;2.88;;;;;;;-143.54;100.00;59916.91;5100660;28;20479;-80
2023/12/22 01:52:01;;;;;;;15.38;2.88;;;;;;;-143.54;100.00;59916.91;5094333;28;20531;-80
2023/12/22 01:54:26;;;;;;;15.20;3.65;;;;;;;-143.54;100.00;59916.91;5104779;28;20490;-80
2023/12/22 01:56:52;;;;;;;16.92;2.80;;;;;;;-143.54;100.00;59916.91;5096158;28;20071;-80
2023/12/22 01:59:17;;;;;;;14.10;3.50;;;;;;;-143.54;100.00;59916.91;5096962;28;20016;-80
2023/12/22 02:01:45;;;;;;;13.38;2.35;;;;;;;-143.54;100.00;59916.91;5096014;28;20463;-80
2023/12/22 02:04:11;;;;;;;16.42;3.42;;;;;;;-143.54;100.00;59916.91;5102534;28;20024;-80
2023/12/22 02:06:37;;;;;;;17.02;2.63;;;;;;;-143.54;100.00;59916.91;5098390;28;20028;-80
2023/12/22 02:09:04;;;;;;;17.30;3.40;;;;;;;-143.54;100.00;59916.91;5106424;28;20084;-80
2023/12/22 02:11:29;;;;;;;17.42;3.38;;;;;;;-143.54;100.00;59916.91;5099343;28;20430;-80
2023/12/22 02:13:54;;;;;;;13.82;3.13;;;;;;;-143.54;100.00;59916.91;5103434;28;20083;-80
2023/12/22 02:16:39;;;;;;;13.95;2.40;;;;;;;-143.54;100.00;59916.91;5101736;28;20094;-80
2023/12/22 02:19:17;;;;;;;16.73;2.50;;;;;;;-143.54;100.00;59916.91;5097243;28;20020;-80
2023/12/22 02:22:08;;;;;;;19.60;3.88;;;;;;;-143.54;100.00;59916.91;5105868;28;20062;-80
2023/12/22 02:24:33;;;;;;;15.40;2.80;;;;;;;-143.54;100.00;59916.91;5095571;28;20106;-80
2023/12/22 02:27:07;;;;;;;17.38;3.30;;;;;;;-143.54;100.00;59916.91;5109704;28;20110;-80
2023/12/22 02:29:42;;;;;;;14.25;2.45;;;;;;;-143.54;100.00;59916.91;5099045;28;20102;-80
2023/12/22 02:32:13;;;;;;;11.32;2.72;;;;;;;-143.54;100.00;59916.91;5100756;28;20055;-80
2023/12/22 02:34:43;;;;;;;16.95;2.70;;;;;;;-143.54;100.00;59916.91;5096045;28;20043;-80
2023/12/22 02:37:10;;;;;;;19.02;3.10;;;;;;;-143.54;100.00;59916.91;5095956;28;20089;-80
2023/12/22 02:39:35;;;;;;;16.63;2.70;;;;;;;-143.54;100.00;59916.91;5095585;28;20028;-80
2023/12/22 02:42:03;;;;;;;13.80;2.72;;;;;;;-143.54;100.00;59916.91;5096074;28;20028;-80
2023/12/22 02:44:29;;;;;;;20.80;3.28;;;;;;;-143.54;100.00;59916.91;5099120;28;20028;-80
2023/12/22 02:46:54;;;;;;;13.93;2.80;;;;;;;-143.54;100.00;59916.91;5104522;28;20444;-79
2023/12/22 02:49:19;;;;;;;17.55;3.60;;;;;;;-143.54;100.00;59916.91;5097813;28;20035;-80
2023/12/22 02:51:44;;;;;;;16.77;3.35;;;;;;;-143.54;100.00;59916.91;5090602;28;20535;-80
2023/12/22 02:54:10;;;;;;;17.30;2.85;;;;;;;-143.54;100.00;59916.91;5098815;28;20024;-80
2023/12/22 02:56:35;;;;;;;18.80;3.40;;;;;;;-143.54;100.00;59916.91;5096419;28;20048;-80
2023/12/22 02:59:00;;;;;;;15.65;3.53;;;;;;;-143.54;100.00;59916.91;5086816;28;20024;-80
2023/12/22 03:01:26;;;;;;;20.95;3.58;;;;;;;-143.54;100.00;59916.91;5102400;28;20024;-80
2023/12/22 03:03:51;;;;;;;15.07;3.47;;;;;;;-143.54;100.00;59916.91;5101920;28;20514;-80
2023/12/22 03:06:16;;;;;;;18.27;3.38;;;;;;;-143.54;100.00;59916.91;5093426;28;20073;-80
2023/12/22 03:08:42;;;;;;;20.00;3.17;;;;;;;-143.54;100.00;59916.91;5094882;28;20077;-80
2023/12/22 03:11:07;;;;;;;13.13;3.45;;;;;;;-143.54;100.00;59916.91;5096523;28;20069;-80
2023/12/22 03:13:32;;;;;;;22.83;3.92;;;;;;;-143.54;100.00;59916.91;5090225;28;20442;-80
2023/12/22 03:15:57;;;;;;;20.33;3.13;;;;;;;-143.54;100.00;59916.91;5097318;28;20031;-80
2023/12/22 03:18:23;;;;;;;18.15;3.35;;;;;;;-143.54;100.00;59916.91;5112069;28;20073;-80
2023/12/22 03:20:48;;;;;;;15.52;4.18;;;;;;;-143.54;100.00;59916.91;5099364;28;20553;-80
2023/12/22 03:23:13;;;;;;;20.30;3.88;;;;;;;-143.54;100.00;59916.91;5093547;28;20479;-80
2023/12/22 03:25:38;;;;;;;17.75;4.28;;;;;;;-143.54;100.00;59916.91;5099918;28;20035;-80
2023/12/22 03:28:04;;;;;;;26.60;3.83;;;;;;;-143.54;100.00;59916.91;5103467;28;20032;-80
2023/12/22 03:30:29;;;;;;;23.17;2.92;;;;;;;-143.54;100.00;59916.91;5100364;28;20391;-80
2023/12/22 03:32:54;;;;;;;15.68;3.10;;;;;;;-143.54;100.00;59916.91;5101052;28;20040;-80
2023/12/22 03:35:20;;;;;;;22.20;4.32;;;;;;;-143.54;100.00;59916.91;5095309;28;20034;-80
2023/12/22 03:37:45;;;;;;;18.15;3.97;;;;;;;-143.54;100.00;59916.91;5100094;28;20032;-80
2023/12/22 03:40:11;;;;;;;16.00;3.13;;;;;;;-143.54;100.00;59916.91;5099486;28;20063;-79
2023/12/22 03:42:36;;;;;;;21.80;3.70;;;;;;;-143.54;100.00;59916.91;5097773;28;20062;-80
2023/12/22 03:45:01;;;;;;;13.23;2.75;;;;;;;-143.54;100.00;59916.91;5097528;28;20024;-80
2023/12/22 03:47:27;;;;;;;18.92;3.92;;;;;;;-143.54;100.00;59916.91;5094813;28;20063;-79
2023/12/22 03:49:52;;;;;;;17.40;3.05;;;;;;;-143.54;100.00;59916.91;5103383;28;20019;-80
2023/12/22 03:52:17;;;;;;;14.98;3.35;;;;;;;-143.54;100.00;59916.91;5084527;28;20024;-80
2023/12/22 03:54:43;;;;;;;18.83;3.45;;;;;;;-143.54;100.00;59916.91;5100600;28;20084;-80
2023/12/22 03:57:08;;;;;;;16.92;3.65;;;;;;;-143.54;100.00;59916.91;5096368;28;20039;-80
2023/12/22 03:59:33;;;;;;;13.23;2.58;;;;;;;-143.54;100.00;59916.91;5098009;28;20020;-80
2023/12/22 04:02:01;;;;;;;16.02;3.13;;;;;;;-143.54;100.00;59916.91;5098729;28;20032;-80
2023/12/22 04:04:27;;;;;;;12.75;2.90;;;;;;;-143.54;100.00;59916.91;5097187;28;20020;-80
2023/12/22 04:06:53;;;;;;;13.73;3.30;;;;;;;-143.54;100.00;59916.91;5098786;28;20086;-79
2023/12/22 04:09:19;;;;;;;15.02;2.92;;;;;;;-143.54;100.00;59916.91;5093746;28;20024;-80
2023/12/22 04:11:44;;;;;;;11.48;2.20;;;;;;;-143.54;100.00;59916.91;5097409;28;20062;-80
2023/12/22 04:14:09;;;;;;;16.10;2.75;;;;;;;-143.54;100.00;59916.91;5091982;28;20023;-80
2023/12/22 04:16:38;;;;;;;12.77;3.13;;;;;;;-143.54;100.00;59916.91;5094523;28;20039;-79
2023/12/22 04:19:03;;;;;;;19.45;3.60;;;;;;;-143.54;100.00;59916.91;5100722;28;20020;-80
2023/12/22 04:21:28;;;;;;;22.08;3.63;;;;;;;-143.54;100.00;59916.91;5097552;28;20077;-80
2023/12/22 04:23:54;;;;;;;19.17;3.30;;;;;;;-143.54;100.00;59916.91;5099414;28;20070;-80
2023/12/22 04:26:19;;;;;;;21.63;3.58;;;;;;;-143.54;100.00;59916.91;5102108;28;20463;-80
2023/12/22 04:28:44;;;;;;;15.80;3.13;;;;;;;-143.54;100.00;59916.91;5104719;28;20023;-80
2023/12/22 04:31:10;;;;;;;13.25;3.78;;;;;;;-143.54;100.00;59916.91;5100780;28;20027;-80
2023/12/22 04:33:35;;;;;;;18.23;2.95;;;;;;;-143.54;100.00;59916.91;5100258;28;20027;-80
2023/12/22 04:36:00;;;;;;;19.05;2.55;;;;;;;-143.54;100.00;59916.91;5097406;28;20445;-80
2023/12/22 04:38:25;;;;;;;15.07;2.67;;;;;;;-143.54;100.00;59916.91;5092993;28;20035;-80
2023/12/22 04:40:51;;;;;;;14.18;2.90;;;;;;;-143.54;100.00;59916.91;5104851;28;20019;-80
2023/12/22 04:43:16;;;;;;;15.27;2.67;;;;;;;-143.54;100.00;59916.91;5099409;28;20027;-80
2023/12/22 04:45:41;;;;;;;13.55;2.83;;;;;;;-143.54;100.00;59916.91;5100616;28;20038;-80
2023/12/22 04:48:07;;;;;;;12.45;2.72;;;;;;;-143.54;100.00;59916.91;5096039;28;20098;-79
2023/12/22 04:50:32;;;;;;;13.13;3.05;;;;;;;-143.54;100.00;59916.91;5092156;28;20374;-80
2023/12/22 04:52:57;;;;;;;12.25;2.53;;;;;;;-143.54;100.00;59916.91;5102912;28;20024;-80
2023/12/22 04:55:22;;;;;;;22.05;3.35;;;;;;;-143.54;100.00;59916.91;5100614;28;20463;-80
2023/12/22 04:57:48;;;;;;;16.38;2.97;;;;;;;-143.54;100.00;59916.91;5100292;28;20433;-80
2023/12/22 05:00:13;;;;;;;13.75;2.53;;;;;;;-143.54;100.00;59916.91;5096495;28;20031;-80
2023/12/22 05:02:39;;;;;;;11.93;2.53;;;;;;;-143.54;100.00;59916.91;5101096;28;20069;-80
2023/12/22 05:05:04;;;;;;;16.00;3.35;;;;;;;-143.54;100.00;59916.91;5103129;28;20036;-80
2023/12/22 05:07:30;;;;;;;11.85;2.70;;;;;;;-143.54;100.00;59916.91;5093911;28;20107;-80
2023/12/22 05:09:55;;;;;;;19.35;3.20;;;;;;;-143.54;100.00;59916.91;5103335;28;20020;-80
2023/12/22 05:12:20;;;;;;;16.50;3.25;;;;;;;-143.54;100.00;59916.91;5103074;28;20204;-80
2023/12/22 05:14:46;;;;;;;12.70;2.70;;;;;;;-143.54;100.00;59916.91;5098731;28;20446;-79
2023/12/22 05:17:11;;;;;;;24.55;3.92;;;;;;;-143.54;100.00;59916.91;5113701;28;20023;-80
2023/12/22 05:19:37;;;;;;;19.15;4.00;;;;;;;-143.54;100.00;59916.91;5101139;28;20051;-80
2023/12/22 05:22:03;;;;;;;24.02;4.05;;;;;;;-143.54;100.00;59916.91;5091059;28;20038;-80
2023/12/22 05:24:28;;;;;;;22.77;4.18;;;;;;;-143.54;100.00;59916.91;5095082;28;20032;-80
2023/12/22 05:26:54;;;;;;;21.58;4.25;;;;;;;-143.54;100.00;59916.91;5110178;28;20032;-80
2023/12/22 05:29:19;;;;;;;23.27;3.92;;;;;;;-143.54;100.00;59916.91;5104049;28;20077;-80
2023/12/22 05:31:44;;;;;;;24.25;5.22;;;;;;;-143.54;100.00;59916.91;5103294;28;20119;-80
2023/12/22 05:34:10;;;;;;;22.63;4.85;;;;;;;-143.54;100.00;59916.91;5098021;28;20028;-80
2023/12/22 05:36:35;;;;;;;22.00;4.70;;;;;;;-143.54;100.00;59916.91;5096559;28;20036;-79
2023/12/22 05:39:01;;;;;;;20.17;4.95;;;;;;;-143.54;100.00;59916.91;5097381;28;20429;-80
2023/12/22 05:41:26;;;;;;;21.23;4.53;;;;;;;-143.54;100.00;59916.91;5104498;28;20104;-80
2023/12/22 05:43:52;;;;;;;21.70;5.15;;;;;;;-143.54;100.00;59916.91;5107851;28;20038;-79
2023/12/22 05:46:17;;;;;;;23.35;4.70;;;;;;;-143.54;100.00;59916.91;5099454;28;20024;-80
2023/12/22 05:48:43;;;;;;;28.98;5.15;;;;;;;-143.54;100.00;59916.91;5104184;28;20032;-80
2023/12/22 05:51:13;;;;;;;25.98;5.65;;;;;;;-143.54;100.00;59916.91;5104431;28;20042;-80
2023/12/22 05:53:41;;;;;;;26.55;4.72;;;;;;;-143.54;100.00;59916.91;5102542;28;20028;-80
2023/12/22 05:56:22;;;;;;;28.30;4.80;;;;;;;-143.54;100.00;59916.91;5105237;28;20030;-80
2023/12/22 05:58:49;;;;;;;31.48;5.78;;;;;;;-143.54;100.00;59916.91;5101426;28;20055;-80
2023/12/22 06:01:16;;;;;;;32.47;5.60;;;;;;;-143.54;100.00;59916.91;5108409;28;20050;-80
2023/12/22 06:03:42;;;;;;;29.50;5.72;;;;;;;-143.54;100.00;59916.91;5100679;28;20024;-80
2023/12/22 06:06:07;;;;;;;35.97;5.95;;;;;;;-143.54;100.00;59916.91;5096343;28;20467;-80
2023/12/22 06:08:32;;;;;;;32.90;6.32;;;;;;;-143.54;100.00;59916.91;5110209;28;20381;-80
2023/12/22 06:10:57;;;;;;;32.63;5.45;;;;;;;-143.54;100.00;59916.91;5105533;28;20027;-80
2023/12/22 06:13:24;;;;;;;29.33;5.95;;;;;;;-143.54;100.00;59916.91;5097354;28;20107;-80
2023/12/22 06:15:49;;;;;;;43.28;6.38;;;;;;;-143.54;100.00;59916.91;5097679;28;20035;-80
2023/12/22 06:18:15;;;;;;;33.08;5.82;;;;;;;-143.54;100.00;59916.91;5090858;28;20021;-80
2023/12/22 06:20:40;;;;;;;40.55;6.40;;;;;;;-143.54;100.00;59916.91;5107296;28;20134;-80
2023/12/22 06:23:05;;;;;;;39.20;6.05;;;;;;;-143.54;100.00;59916.91;5101674;28;20105;-80
2023/12/22 06:25:31;;;;;;;36.25;5.82;;;;;;;-143.54;100.00;59916.91;5098096;28;20081;-80
2023/12/22 06:27:56;;;;;;;30.48;5.07;;;;;;;-143.54;100.00;59916.91;5097594;28;20507;-80
2023/12/22 06:30:21;;;;;;;35.75;6.95;;;;;;;-143.54;100.00;59916.91;5102737;28;20028;-80
2023/12/22 06:32:47;;;;;;;31.80;5.95;;;;;;;-143.54;100.00;59916.91;5105451;28;20034;-80
2023/12/22 06:35:13;;;;;;;24.63;5.15;;;;;;;-143.54;100.00;59916.91;5096296;28;20020;-80
2023/12/22 06:37:38;;;;;;;29.08;6.70;;;;;;;-143.54;100.00;59916.91;5099003;28;20027;-80
2023/12/22 06:40:04;;;;;;;40.70;6.90;;;;;;;-143.54;100.00;59916.91;5090391;28;20040;-80
2023/12/22 06:42:30;;;;;;;36.25;5.85;;;;;;;-143.54;100.00;59916.91;5097674;28;20030;-80
2023/12/22 06:44:55;;;;;;;39.33;6.38;;;;;;;-143.54;100.00;59916.91;5102516;28;20036;-80
2023/12/22 06:47:20;;;;;;;33.35;7.35;;;;;;;-143.54;100.00;59916.91;5102130;28;20103;-80
2023/12/22 06:49:46;;;;;;;37.83;5.95;;;;;;;-143.54;100.00;59916.91;5100910;28;20471;-80
2023/12/22 06:52:11;;;;;;;36.55;6.38;;;;;;;-143.54;100.00;59916.91;5098515;28;20077;-80
2023/12/22 06:54:36;;;;;;;30.92;6.53;;;;;;;-143.54;100.00;59916.91;5102705;28;20028;-80
2023/12/22 06:57:02;;;;;;;38.17;7.28;;;;;;;-143.54;100.00;59916.91;5097797;28;20037;-80
2023/12/22 06:59:27;;;;;;;41.35;6.60;;;;;;;-143.54;100.00;59916.91;5088655;28;20049;-80
2023/12/22 07:01:52;;;;;;;30.48;6.40;;;;;;;-143.54;100.00;59916.91;5101456;28;20020;-80
2023/12/22 07:04:18;;;;;;;44.03;8.00;;;;;;;-143.54;100.00;59916.91;5101872;28;20031;-79
2023/12/22 07:06:44;;;;;;;34.97;6.78;;;;;;;-143.54;100.00;59916.91;5093914;28;20031;-80
2023/12/22 07:09:12;;;;;;;39.28;6.88;;;;;;;-143.54;100.00;59916.91;5101195;28;20046;-80
2023/12/22 07:11:43;;;;;;;35.72;7.25;;;;;;;-143.54;100.00;59916.91;5098670;28;20055;-81
2023/12/22 07:14:09;;;;;;;37.35;6.82;;;;;;;-143.54;100.00;59916.91;5093340;28;20057;-80
2023/12/22 07:16:35;;;;;;;40.83;7.20;;;;;;;-143.54;100.00;59916.91;5099482;28;20032;-80
2023/12/22 07:19:01;;;;;;;43.40;7.43;;;;;;;-143.54;100.00;59916.91;5092838;28;20375;-80
2023/12/22 07:21:26;;;;;;;40.85;7.07;;;;;;;-143.54;100.00;59916.91;5099155;28;20111;-80
2023/12/22 07:23:52;;;;;;;37.13;7.30;;;;;;;-143.54;100.00;59916.91;5094114;28;20019;-80
2023/12/22 07:26:17;;;;;;;34.40;6.57;;;;;;;-143.54;100.00;59916.91;5095709;28;20046;-80
2023/12/22 07:28:42;;;;;;;27.77;5.57;;;;;;;-143.54;100.00;59916.91;5103861;28;20050;-80
2023/12/22 07:31:08;;;;;;;45.33;7.53;;;;;;;-143.54;100.00;59916.91;5097902;28;20026;-80
2023/12/22 07:33:33;;;;;;;39.22;7.47;;;;;;;-143.54;100.00;59916.91;5106591;28;20044;-80
2023/12/22 07:35:58;;;;;;;36.95;6.28;;;;;;;-143.54;100.00;59916.91;5094895;28;20063;-80
2023/12/22 07:38:23;;;;;;;33.88;6.57;;;;;;;-143.54;100.00;59916.91;5101244;28;20479;-80
2023/12/22 07:40:49;;;;;;;27.38;5.18;;;;;;;-143.54;100.00;59916.91;5094462;28;20031;-80
2023/12/22 07:43:15;;;;;;;33.28;6.80;;;;;;;-143.54;100.00;59916.91;5109070;28;20027;-80
2023/12/22 07:45:40;;;;;;;37.17;7.03;;;;;;;-143.54;100.00;59916.91;5101183;28;20027;-80
2023/12/22 07:48:06;;;;;;;36.33;5.95;;;;;;;-143.54;100.00;59916.91;5102485;28;20028;-80
2023/12/22 07:50:32;;;;;;;29.63;6.07;;;;;;;-143.54;100.00;59916.91;5095639;28;20140;-80
2023/12/22 07:52:58;;;;;;;26.88;5.20;;;;;;;-143.54;100.00;59916.91;5096604;28;20020;-80
2023/12/22 07:55:25;;;;;;;30.38;6.25;;;;;;;-143.54;100.00;59916.91;5090375;28;20460;-80
2023/12/22 07:57:50;;;;;;;32.50;6.65;;;;;;;-143.54;100.00;59916.91;5106961;28;20082;-80
2023/12/22 08:00:19;;;;;;;31.40;5.10;;;;;;;-143.54;100.00;59916.91;5097123;28;20028;-80
2023/12/22 08:02:44;;;;;;;24.75;5.68;;;;;;;-143.54;100.00;59916.91;5096633;28;20426;-79
2023/12/22 08:05:11;;;;;;;23.23;5.57;;;;;;;-143.54;100.00;59916.91;5096564;28;20031;-80
2023/12/22 08:07:36;;;;;;;26.58;4.82;;;;;;;-143.54;100.00;59916.91;5099236;28;20035;-80
2023/12/22 08:10:03;;;;;;;24.85;6.20;;;;;;;-143.54;100.00;59916.91;5096694;28;20015;-81
2023/12/22 08:12:29;;;;;;;22.77;4.95;;;;;;;-143.54;100.00;59916.91;5093932;28;20043;-80
2023/12/22 08:14:54;;;;;;;29.13;5.43;;;;;;;-143.54;100.00;59916.91;5096216;28;20047;-80
2023/12/22 08:17:20;;;;;;;18.85;4.70;;;;;;;-143.54;100.00;59916.91;5104191;28;20395;-80
2023/12/22 08:19:45;;;;;;;22.60;4.20;;;;;;;-143.54;100.00;59916.91;5093877;28;20035;-80
2023/12/22 08:22:13;;;;;;;21.70;4.22;;;;;;;-143.54;100.00;59916.91;5101070;28;20022;-81
2023/12/22 08:24:39;;;;;;;24.15;5.07;;;;;;;-143.54;100.00;59916.91;5097112;28;20028;-80
2023/12/22 08:27:06;;;;;;;17.48;4.03;;;;;;;-143.54;100.00;59916.91;5093385;28;20024;-80
2023/12/22 08:29:31;;;;;;;26.05;4.88;;;;;;;-143.54;100.00;59916.91;5098667;28;20060;-81
2023/12/22 08:31:56;;;;;;;19.98;4.43;;;;;;;-143.54;100.00;59916.91;5094588;28;20048;-81
2023/12/22 08:34:21;;;;;;;17.23;4.75;;;;;;;-143.54;100.00;59916.91;5099811;28;20024;-80
2023/12/22 08:36:47;;;;;;;14.52;3.28;;;;;;;-143.54;100.00;59916.91;5095593;28;20042;-81
2023/12/22 08:39:12;;;;;;;11.20;3.40;;;;;;;-143.54;100.00;59916.91;5103745;28;20024;-80
2023/12/22 08:41:38;;;;;;;12.85;3.13;;;;;;;-143.54;100.00;59916.91;5101127;28;20032;-81
2023/12/22 08:44:04;;;;;;;20.45;4.00;;;;;;;-143.54;100.00;59916.91;5100425;28;20024;-81
2023/12/22 08:46:30;;;;;;;15.80;3.45;;;;;;;-143.54;100.00;59916.91;5100772;28;20028;-80
2023/12/22 08:48:56;;;;;;;15.95;2.92;;;;;;;-143.54;100.00;59916.91;5099705;28;20031;-80
2023/12/22 08:51:21;;;;;;;19.02;3.35;;;;;;;-143.54;100.00;59916.91;5093385;28;20024;-80
2023/12/22 08:53:47;;;;;;;18.80;2.97;;;;;;;-143.54;100.00;59916.91;5098906;28;20077;-80
2023/12/22 08:56:12;;;;;;;14.45;3.08;;;;;;;-143.54;100.00;59916.91;5094295;28;20028;-81
2023/12/22 08:58:37;;;;;;;14.95;3.17;;;;;;;-143.54;100.00;59916.91;5106899;28;20028;-80
2023/12/22 09:01:03;;;;;;;19.65;2.92;;;;;;;-143.54;100.00;59916.91;5096046;28;20368;-80
2023/12/22 09:03:28;;;;;;;15.15;3.05;;;;;;;-143.54;100.00;59916.91;5096614;28;20038;-80
2023/12/22 09:05:54;;;;;;;13.90;2.58;;;;;;;-143.54;100.00;59916.91;5093062;28;20032;-80
2023/12/22 09:08:19;;;;;;;10.85;2.58;;;;;;;-143.54;100.00;59916.91;5097300;28;20475;-80
2023/12/22 09:10:45;;;;;;;14.25;3.20;;;;;;;-143.54;100.00;59916.91;5095979;28;20043;-80
2023/12/22 09:13:11;;;;;;;12.05;2.47;;;;;;;-143.54;100.00;59916.91;5097576;28;20020;-80
2023/12/22 09:15:36;;;;;;;18.67;3.35;;;;;;;-143.54;100.00;59916.91;5092667;28;20024;-81
2023/12/22 09:18:02;;;;;;;11.50;2.50;;;;;;;-143.54;100.00;59916.91;5088681;28;20537;-80
2023/12/22 09:20:29;;;;;;;12.50;3.03;;;;;;;-143.54;100.00;59916.91;5094858;28;20027;-80
2023/12/22 09:22:55;;;;;;;10.68;2.17;;;;;;;-143.54;100.00;59916.91;5102852;28;20452;-80
2023/12/22 09:25:20;;;;;;;11.10;1.83;;;;;;;-143.54;100.00;59916.91;5097193;28;20107;-80
2023/12/22 09:27:45;;;;;;;8.43;2.20;;;;;;;-143.54;100.00;59916.91;5096583;28;20030;-81
2023/12/22 09:30:11;;;;;;;7.18;1.85;;;;;;;-143.54;100.00;59916.91;5099240;28;20032;-80
2023/12/22 09:32:36;;;;;;;8.38;1.60;;;;;;;-143.54;100.00;59916.91;5095992;28;20043;-80
2023/12/22 09:35:02;;;;;;;5.43;1.48;;;;;;;-143.54;100.00;59916.91;5099919;28;20475;-80
2023/12/22 09:37:28;;;;;;;6.05;1.40;;;;;;;-143.54;100.00;59916.91;5101010;28;20032;-80
2023/12/22 09:39:53;;;;;;;5.47;1.40;;;;;;;-143.54;100.00;59916.91;5086487;28;20069;-81
2023/12/22 09:42:25;;;;;;;4.63;1.80;;;;;;;-143.54;100.00;59916.91;5095588;28;20016;-81
2023/12/22 09:44:54;;;;;;;6.82;1.67;;;;;;;-143.54;100.00;59916.91;5096171;28;20020;-80
2023/12/22 09:47:19;;;;;;;6.18;1.80;;;;;;;-143.54;100.00;59916.91;5094877;28;20024;-78
2023/12/22 09:49:46;;;;;;;6.20;1.48;;;;;;;-143.54;100.00;59916.91;5097813;28;20502;-79
2023/12/22 09:52:13;;;;;;;6.55;1.67;;;;;;;-143.54;100.00;59916.91;5088481;28;20024;-79
2023/12/22 09:54:40;;;;;;;4.55;1.58;;;;;;;-143.54;100.00;59916.91;5101778;28;20051;-78
2023/12/22 09:57:06;;;;;;;7.22;1.88;;;;;;;-143.54;100.00;59916.91;5097055;28;20081;-79
2023/12/22 09:59:33;;;;;;;8.02;1.40;;;;;;;-143.54;100.00;59916.91;5099780;28;20023;-78
2023/12/22 10:02:02;;;;;;;4.85;1.70;;;;;;;-143.54;100.00;59916.91;5103861;28;20024;-78
2023/12/22 10:04:27;;;;;;;6.05;1.65;;;;;;;-143.54;100.00;59916.91;5097771;28;20020;-78
2023/12/22 10:06:56;;;;;;;8.48;1.80;;;;;;;-143.54;100.00;59916.91;5096321;28;20089;-78
2023/12/22 10:09:22;;;;;;;10.02;1.85;;;;;;;-143.54;100.00;59916.91;5100375;28;20024;-78
2023/12/22 10:11:51;;;;;;;10.43;1.92;;;;;;;-143.54;100.00;59916.91;5097470;28;20107;-78
2023/12/22 10:14:22;;;;;;;6.80;2.10;;;;;;;-143.54;100.00;59916.91;5100923;28;20464;-78
2023/12/22 10:16:49;;;;;;;7.05;1.83;;;;;;;-143.54;100.00;59916.91;5105158;28;20490;-78
2023/12/22 10:19:15;;;;;;;6.97;1.65;;;;;;;-143.54;100.00;59916.91;5102529;28;20375;-78
2023/12/22 10:21:40;;;;;;;7.72;2.28;;;;;;;-143.54;100.00;59916.91;5103933;28;20032;-78
2023/12/22 10:24:05;;;;;;;5.72;2.08;;;;;;;-143.54;100.00;59916.91;5097679;28;20024;-78
2023/12/22 10:26:30;;;;;;;11.32;2.42;;;;;;;-143.54;100.00;59916.91;5087486;28;20070;-77
2023/12/22 10:28:56;;;;;;;5.10;2.15;;;;;;;-143.54;100.00;59916.91;5106383;28;20028;-78
2023/12/22 10:31:21;;;;;;;12.07;1.85;;;;;;;-143.54;100.00;59916.91;5091510;28;20023;-78
2023/12/22 10:33:46;;;;;;;4.90;1.63;;;;;;;-143.54;100.00;59916.91;5100793;28;20032;-78
2023/12/22 10:36:12;;;;;;;8.45;2.05;;;;;;;-143.54;100.00;59916.91;5099628;28;20028;-77
2023/12/22 10:38:37;;;;;;;5.70;1.92;;;;;;;-143.54;100.00;59916.91;5103314;28;20149;-78
2023/12/22 10:41:05;;;;;;;6.53;1.80;;;;;;;-143.54;100.00;59916.91;5099308;28;20103;-78
2023/12/22 10:43:30;;;;;;;7.00;1.90;;;;;;;-143.54;100.00;59916.91;5101872;28;20032;-78
2023/12/22 10:45:55;;;;;;;5.70;1.75;;;;;;;-143.54;100.00;59916.91;5091568;28;20487;-78
2023/12/22 10:48:22;;;;;;;4.53;1.83;;;;;;;-143.54;100.00;59916.91;5101842;28;20024;-79
2023/12/22 10:50:48;;;;;;;6.05;1.90;;;;;;;-143.54;100.00;59916.91;5099316;28;20047;-79
2023/12/22 10:53:14;;;;;;;5.97;1.48;;;;;;;-143.54;100.00;59916.91;5095820;28;20056;-79
2023/12/22 10:55:40;;;;;;;5.55;1.63;;;;;;;-143.54;100.00;59916.91;5100554;28;20486;-79